Time;durP1;ratioP1;P1;durP2;ratioP2;P2;SDS_P1;SDS_P2;PMS_P1;PMS_P2;Temp;Humidity;BMP_temperature;BMP_pressure;BME280_temperature;BME280_humidity;BME280_pressure;Samples;Min_cycle;Max_cycle;Signal;HPM_P1;HPM_P2
2023/04/16 00:01:56;;;;;;;4.22;2.58;;;9.40;69.90;;;;;;6068192;23;20381;-77
2023/04/16 00:04:23;;;;;;;2.72;1.90;;;9.30;71.00;;;;;;6067554;23;20433;-76
2023/04/16 00:06:50;;;;;;;3.97;2.40;;;9.30;70.30;;;;;;6067824;23;20381;-77
2023/04/16 00:09:17;;;;;;;4.53;2.88;;;9.20;71.30;;;;;;6067490;23;20428;-77
2023/04/16 00:11:44;;;;;;;3.58;2.15;;;9.10;73.50;;;;;;6068153;23;20417;-77
2023/04/16 00:14:11;;;;;;;4.20;2.40;;;9.10;75.00;;;;;;6067608;23;20385;-77
2023/04/16 00:16:37;;;;;;;4.28;2.42;;;9.10;76.40;;;;;;6068460;23;20378;-77
2023/04/16 00:19:04;;;;;;;4.63;2.53;;;9.00;73.90;;;;;;6068737;23;20395;-77
2023/04/16 00:21:31;;;;;;;5.30;2.75;;;9.00;75.80;;;;;;6092961;23;20373;-76
2023/04/16 00:23:58;;;;;;;4.75;2.67;;;8.90;74.50;;;;;;6093880;23;20431;-77
2023/04/16 00:26:25;;;;;;;4.38;2.20;;;8.80;74.40;;;;;;6067155;23;20444;-77
2023/04/16 00:28:52;;;;;;;3.63;2.33;;;8.70;75.30;;;;;;6068490;23;20381;-77
2023/04/16 00:31:26;;;;;;;5.05;2.67;;;8.60;75.60;;;;;;6067322;23;20405;-76
2023/04/16 00:33:53;;;;;;;3.65;2.35;;;8.40;77.30;;;;;;6068488;23;20377;-77
2023/04/16 00:36:22;;;;;;;3.28;1.80;;;8.40;77.50;;;;;;6092896;23;20385;-77
2023/04/16 00:38:49;;;;;;;4.47;2.83;;;8.20;76.70;;;;;;6068356;23;20385;-77
2023/04/16 00:41:16;;;;;;;5.85;2.95;;;8.10;76.90;;;;;;6067366;23;20460;-76
2023/04/16 00:43:43;;;;;;;2.60;1.70;;;8.00;79.30;;;;;;6067992;23;20381;-77
2023/04/16 00:46:11;;;;;;;4.22;2.03;;;7.90;76.80;;;;;;6067012;23;20436;-77
2023/04/16 00:48:39;;;;;;;4.20;2.00;;;7.80;77.80;;;;;;6068150;23;20388;-76
2023/04/16 00:51:07;;;;;;;4.88;2.60;;;7.70;78.40;;;;;;6068228;23;20413;-77
2023/04/16 00:53:35;;;;;;;4.20;2.63;;;7.70;80.10;;;;;;6066889;23;20669;-77
2023/04/16 00:56:03;;;;;;;3.03;2.30;;;7.60;80.60;;;;;;6075922;23;20395;-77
2023/04/16 00:58:31;;;;;;;2.97;1.80;;;7.50;84.30;;;;;;6079344;23;20421;-77
2023/04/16 01:00:59;;;;;;;2.72;1.80;;;7.40;82.60;;;;;;6068168;23;20374;-76
2023/04/16 04:48:07;;;;;;;4.70;2.60;;;3.90;99.90;;;;;;6121438;23;20454;-80
2023/04/16 04:50:35;;;;;;;4.85;2.45;;;3.90;99.90;;;;;;6096331;23;20451;-80
2023/04/16 04:53:03;;;;;;;6.18;2.90;;;3.80;99.90;;;;;;6123623;23;20379;-81
2023/04/16 04:55:30;;;;;;;4.10;2.33;;;3.80;99.90;;;;;;6099237;23;20418;-80
2023/04/16 04:57:57;;;;;;;3.25;2.25;;;3.80;99.90;;;;;;6098360;23;20387;-82
2023/04/16 05:00:23;;;;;;;3.28;2.30;;;3.80;99.90;;;;;;6099397;23;20368;-80
2023/04/16 05:02:51;;;;;;;4.18;2.25;;;3.80;99.90;;;;;;6123911;23;20372;-81
2023/04/16 05:05:18;;;;;;;4.60;2.50;;;3.80;99.90;;;;;;6071388;23;20733;-80
2023/04/16 05:07:45;;;;;;;3.78;2.58;;;3.80;99.90;;;;;;6069071;23;20381;-81
2023/04/16 05:10:11;;;;;;;6.28;4.18;;;3.80;99.90;;;;;;6070255;23;20378;-80
2023/04/16 05:12:39;;;;;;;6.90;4.80;;;3.80;99.90;;;;;;6068848;23;20384;-82
2023/04/16 05:15:06;;;;;;;5.97;4.35;;;3.80;99.90;;;;;;6070158;23;20382;-80
2023/04/16 05:17:33;;;;;;;6.22;4.13;;;3.70;99.90;;;;;;6069498;23;20393;-80
2023/04/16 05:20:00;;;;;;;4.72;3.38;;;3.80;99.90;;;;;;6069827;23;20373;-80
2023/04/16 05:22:27;;;;;;;5.47;3.47;;;3.80;99.90;;;;;;6095182;23;20401;-81
2023/04/16 05:24:53;;;;;;;4.43;2.60;;;3.70;99.90;;;;;;6069493;23;20397;-80
2023/04/16 05:27:20;;;;;;;3.75;2.25;;;3.70;99.90;;;;;;6070323;23;20445;-81
2023/04/16 05:29:47;;;;;;;4.85;3.20;;;3.70;99.90;;;;;;6069421;23;20452;-81
2023/04/16 05:32:14;;;;;;;4.45;2.97;;;3.70;99.90;;;;;;6069894;23;20409;-81
2023/04/16 05:34:41;;;;;;;4.47;2.78;;;3.70;99.90;;;;;;6069615;23;20377;-80
2023/04/16 05:37:08;;;;;;;8.05;6.13;;;3.70;99.90;;;;;;6069769;23;20389;-80
2023/04/16 05:39:36;;;;;;;10.47;7.03;;;3.80;99.90;;;;;;6068589;23;21558;-82
2023/04/16 05:42:03;;;;;;;8.55;5.97;;;3.90;99.90;;;;;;6069907;23;20462;-82
2023/04/16 05:44:30;;;;;;;9.57;5.93;;;3.90;99.90;;;;;;6070013;23;20452;-83
2023/04/16 05:46:57;;;;;;;6.80;4.85;;;4.00;99.90;;;;;;6093952;23;20381;-81
2023/04/16 05:49:24;;;;;;;5.25;4.72;;;4.10;99.90;;;;;;6095181;23;20468;-80
2023/04/16 05:51:50;;;;;;;6.05;4.45;;;4.10;99.90;;;;;;6068711;23;20409;-83
2023/04/16 05:54:17;;;;;;;4.80;3.43;;;4.20;99.90;;;;;;6069228;23;20409;-82
2023/04/16 05:56:44;;;;;;;5.85;2.92;;;4.30;99.90;;;;;;6094062;23;20899;-81
2023/04/16 05:59:11;;;;;;;3.65;2.90;;;4.40;99.90;;;;;;6070428;23;20759;-81
2023/04/16 06:01:38;;;;;;;4.63;3.38;;;4.50;99.90;;;;;;6069114;23;20393;-81
2023/04/16 06:04:05;;;;;;;3.92;2.85;;;4.60;99.90;;;;;;6069500;23;20397;-81
2023/04/16 06:06:32;;;;;;;6.63;3.70;;;4.60;99.90;;;;;;6069891;23;20392;-80
2023/04/16 06:08:59;;;;;;;5.55;3.95;;;4.70;99.90;;;;;;6069115;23;20448;-82
2023/04/16 06:11:26;;;;;;;5.13;4.32;;;4.80;99.90;;;;;;6069796;23;20416;-80
2023/04/16 06:13:53;;;;;;;5.82;4.80;;;5.00;99.90;;;;;;6069352;23;20429;-82
2023/04/16 06:16:20;;;;;;;5.18;4.68;;;5.00;99.90;;;;;;6069655;23;20422;-81
2023/04/16 06:18:47;;;;;;;5.97;4.25;;;5.10;99.90;;;;;;6094005;23;20374;-82
2023/04/16 06:21:14;;;;;;;5.17;4.20;;;5.20;99.90;;;;;;6070127;23;20697;-81
2023/04/16 06:23:41;;;;;;;4.60;3.83;;;5.30;99.90;;;;;;6069005;23;20724;-82
2023/04/16 06:26:09;;;;;;;6.03;4.28;;;5.40;99.90;;;;;;6069702;23;20389;-81
2023/04/16 06:28:36;;;;;;;6.32;4.82;;;5.60;99.90;;;;;;6069389;23;20400;-82
2023/04/16 06:31:03;;;;;;;5.47;4.00;;;5.80;99.90;;;;;;6093673;23;20366;-82
2023/04/16 06:33:30;;;;;;;5.38;4.03;;;5.90;99.90;;;;;;6069513;23;20380;-82
2023/04/16 06:35:57;;;;;;;6.72;3.58;;;6.10;99.90;;;;;;6068917;23;20378;-82
2023/04/16 06:38:24;;;;;;;6.22;4.47;;;6.30;99.90;;;;;;6069429;23;20385;-82
2023/04/16 06:40:51;;;;;;;6.63;4.07;;;6.40;99.90;;;;;;6068962;23;20378;-82
2023/04/16 06:43:18;;;;;;;5.07;3.65;;;6.50;99.90;;;;;;6069769;23;20374;-83
2023/04/16 06:45:44;;;;;;;4.30;3.90;;;6.70;99.90;;;;;;6068598;23;20409;-81
2023/04/16 06:48:11;;;;;;;6.70;4.43;;;6.80;99.90;;;;;;6091920;23;20370;-83
2023/04/16 06:50:40;;;;;;;6.03;4.00;;;7.00;99.90;;;;;;6093090;23;20748;-83
2023/04/16 06:53:07;;;;;;;5.55;4.50;;;7.20;99.90;;;;;;6121665;23;20376;-82
2023/04/16 06:55:35;;;;;;;4.97;3.50;;;7.40;99.90;;;;;;6122672;23;20383;-82
2023/04/16 06:58:02;;;;;;;5.90;4.07;;;7.60;99.90;;;;;;6120835;23;20376;-82
2023/04/16 07:00:29;;;;;;;4.18;3.60;;;7.80;99.90;;;;;;6122746;23;20428;-81
2023/04/16 07:02:56;;;;;;;4.15;3.35;;;8.00;99.90;;;;;;6120623;23;20482;-80
2023/04/16 07:05:25;;;;;;;4.00;3.40;;;8.20;99.90;;;;;;6122315;23;20376;-79
2023/04/16 07:07:51;;;;;;;4.40;3.60;;;8.50;99.90;;;;;;6121353;23;20380;-82
2023/04/16 07:10:18;;;;;;;6.15;3.92;;;8.70;99.90;;;;;;6122440;23;20387;-82
2023/04/16 07:12:45;;;;;;;6.45;4.93;;;9.00;99.90;;;;;;6121252;23;20380;-82
2023/04/16 07:15:12;;;;;;;5.75;4.70;;;9.20;99.90;;;;;;6122715;23;20371;-83
2023/04/16 07:17:39;;;;;;;5.53;4.22;;;9.60;99.90;;;;;;6122173;23;20710;-83
2023/04/16 07:20:07;;;;;;;4.82;3.95;;;9.90;99.90;;;;;;6121253;23;20372;-83
2023/04/16 07:22:34;;;;;;;3.80;3.38;;;10.10;98.70;;;;;;6121718;23;20399;-82
2023/04/16 07:25:01;;;;;;;4.30;3.63;;;10.40;96.60;;;;;;6123252;23;20407;-82
2023/04/16 07:27:27;;;;;;;4.90;3.67;;;10.70;95.10;;;;;;6122152;23;20443;-83
2023/04/16 07:29:54;;;;;;;5.65;3.53;;;11.00;93.10;;;;;;6121095;23;20380;-82
2023/04/16 07:32:21;;;;;;;3.50;3.10;;;11.30;90.40;;;;;;6122027;23;20710;-82
2023/04/16 07:34:48;;;;;;;4.57;3.10;;;11.60;88.10;;;;;;6121156;23;20386;-82
2023/04/16 07:37:15;;;;;;;3.20;2.78;;;11.80;81.40;;;;;;6121840;23;20750;-83
2023/04/16 07:39:42;;;;;;;4.93;3.65;;;12.20;79.10;;;;;;6122011;23;20430;-82
2023/04/16 07:42:09;;;;;;;9.25;4.97;;;12.40;76.60;;;;;;6122411;23;20375;-82
2023/04/16 07:44:36;;;;;;;7.13;4.35;;;12.70;71.70;;;;;;6121361;23;20410;-82
2023/04/16 07:47:03;;;;;;;5.18;3.40;;;12.90;67.80;;;;;;6120705;23;20388;-82
2023/04/16 07:49:31;;;;;;;6.38;3.60;;;13.10;67.20;;;;;;6122131;23;20766;-83
2023/04/16 07:51:58;;;;;;;6.70;3.95;;;13.40;66.40;;;;;;6122250;23;20399;-83
2023/04/16 07:54:25;;;;;;;6.00;4.00;;;13.70;64.40;;;;;;6121770;23;20411;-84
2023/04/16 07:56:54;;;;;;;5.75;4.00;;;13.90;60.20;;;;;;6121203;23;20778;-83
2023/04/16 07:59:21;;;;;;;5.70;3.65;;;14.20;59.90;;;;;;6121519;23;20434;-81
2023/04/16 08:01:52;;;;;;;5.10;3.00;;;14.40;57.30;;;;;;6120873;23;20414;-82
2023/04/16 08:04:23;;;;;;;5.03;2.95;;;14.60;56.70;;;;;;6121728;23;20437;-82
2023/04/16 08:06:52;;;;;;;4.95;3.05;;;14.80;56.10;;;;;;6121681;23;20435;-80
2023/04/16 08:09:20;;;;;;;4.55;2.67;;;15.00;54.00;;;;;;6121129;23;20392;-81
2023/04/16 08:11:48;;;;;;;4.50;2.70;;;15.10;52.90;;;;;;6122294;23;20379;-82
2023/04/16 08:14:16;;;;;;;3.72;2.63;;;15.30;52.90;;;;;;6121027;23;20390;-83
2023/04/16 08:16:43;;;;;;;4.18;2.63;;;15.50;52.40;;;;;;6121668;23;20376;-83
2023/04/16 08:19:10;;;;;;;5.53;2.90;;;15.70;52.10;;;;;;6120579;23;20718;-83
2023/04/16 08:21:38;;;;;;;4.68;2.70;;;15.90;50.90;;;;;;6123422;23;20384;-83
2023/04/16 08:24:05;;;;;;;4.70;2.40;;;16.00;50.30;;;;;;6120283;23;20379;-83
2023/04/16 08:26:31;;;;;;;5.88;2.88;;;16.10;50.30;;;;;;6123472;23;20406;-83
2023/04/16 08:28:58;;;;;;;3.78;2.17;;;16.20;47.60;;;;;;6122519;23;20406;-83
2023/04/16 08:31:25;;;;;;;4.30;2.17;;;16.40;48.10;;;;;;6123683;23;20423;-82
2023/04/16 08:33:52;;;;;;;4.28;2.47;;;16.50;47.30;;;;;;6122987;23;20375;-82
2023/04/16 08:36:19;;;;;;;5.27;2.70;;;16.60;47.70;;;;;;6093748;23;20870;-81
2023/04/16 08:38:46;;;;;;;7.53;3.75;;;16.80;47.00;;;;;;6093668;23;20436;-81
2023/04/16 08:41:13;;;;;;;7.13;3.77;;;17.00;46.40;;;;;;6093306;23;20387;-82
2023/04/16 08:43:47;;;;;;;5.90;3.42;;;17.10;46.60;;;;;;6094384;23;20448;-82
2023/04/16 08:46:16;;;;;;;6.73;3.67;;;17.20;45.50;;;;;;6093116;23;20851;-82
2023/04/16 08:48:48;;;;;;;8.05;3.95;;;17.30;45.20;;;;;;6093870;23;20847;-82
2023/04/16 08:51:18;;;;;;;6.97;3.75;;;17.40;44.80;;;;;;6093243;23;21163;-82
2023/04/16 08:53:52;;;;;;;6.13;3.50;;;17.60;43.80;;;;;;6092709;23;20957;-82
2023/04/16 08:56:23;;;;;;;6.97;3.40;;;17.70;44.00;;;;;;6093395;23;20381;-81
2023/04/16 08:58:53;;;;;;;6.93;4.13;;;17.80;44.00;;;;;;6118251;23;20465;-83
2023/04/16 09:01:21;;;;;;;7.70;4.10;;;18.00;43.20;;;;;;6092400;23;20456;-83
2023/04/16 09:03:48;;;;;;;6.55;3.75;;;18.20;43.40;;;;;;6094246;23;20385;-82
2023/04/16 09:06:15;;;;;;;7.33;4.40;;;18.40;43.40;;;;;;6092846;23;20461;-84
2023/04/16 09:08:45;;;;;;;8.07;4.88;;;18.60;42.60;;;;;;6093872;23;20382;-82
2023/04/16 09:11:17;;;;;;;5.20;2.67;;;18.70;40.60;;;;;;6093000;23;20385;-82
2023/04/16 09:13:45;;;;;;;4.47;2.83;;;18.80;41.20;;;;;;6093627;23;20377;-81
2023/04/16 09:16:13;;;;;;;8.35;3.47;;;19.00;41.60;;;;;;6093105;23;20388;-83
2023/04/16 09:18:40;;;;;;;5.57;2.87;;;19.00;39.60;;;;;;6094242;23;20704;-82
2023/04/16 09:21:09;;;;;;;5.68;2.70;;;19.10;39.10;;;;;;6092427;23;20397;-83
2023/04/16 09:23:37;;;;;;;5.90;3.13;;;19.20;38.90;;;;;;6093871;23;20401;-82
2023/04/16 09:26:05;;;;;;;4.53;2.42;;;19.30;38.40;;;;;;6093039;23;20854;-82
2023/04/16 09:28:42;;;;;;;5.72;3.05;;;19.50;38.40;;;;;;6093854;23;20385;-81
2023/04/16 09:31:14;;;;;;;5.67;3.00;;;19.60;36.20;;;;;;6092619;23;20452;-82
2023/04/16 09:33:43;;;;;;;6.97;3.97;;;19.60;36.80;;;;;;6093711;23;20432;-82
2023/04/16 09:36:10;;;;;;;6.05;3.35;;;19.70;37.00;;;;;;6092290;23;20437;-83
2023/04/16 09:38:51;;;;;;;19.45;8.93;;;19.80;36.70;;;;;;6093627;23;20435;-84
2023/04/16 09:41:19;;;;;;;9.20;4.68;;;19.90;35.70;;;;;;6092603;23;20381;-81
2023/04/16 09:43:57;;;;;;;8.02;3.42;;;19.90;35.70;;;;;;6093518;23;20779;-80
2023/04/16 09:46:29;;;;;;;8.18;3.85;;;19.90;36.40;;;;;;6092359;23;20704;-83
2023/04/16 09:48:56;;;;;;;8.37;3.60;;;20.10;36.00;;;;;;6093613;23;20385;-82
2023/04/16 09:51:25;;;;;;;5.20;2.75;;;20.10;35.60;;;;;;6092492;23;20381;-83
2023/04/16 09:53:53;;;;;;;7.07;3.70;;;20.20;35.50;;;;;;6093438;23;20385;-82
2023/04/16 09:56:26;;;;;;;5.15;2.97;;;20.30;35.20;;;;;;6092505;23;20389;-82
2023/04/16 09:58:59;;;;;;;6.20;2.42;;;20.40;35.00;;;;;;6094547;23;20765;-82
2023/04/16 10:01:26;;;;;;;6.25;3.17;;;20.50;34.80;;;;;;6092578;23;20416;-82
2023/04/16 10:03:56;;;;;;;6.88;3.20;;;20.70;34.50;;;;;;6093221;23;20384;-83
2023/04/16 10:06:26;;;;;;;4.50;2.63;;;20.60;33.40;;;;;;6092183;23;20366;-82
2023/04/16 10:08:56;;;;;;;3.50;2.15;;;20.40;32.70;;;;;;6094415;23;20432;-82
2023/04/16 10:11:24;;;;;;;3.90;1.92;;;20.40;33.40;;;;;;6092218;23;20378;-81
2023/04/16 10:13:51;;;;;;;4.50;2.13;;;20.40;33.60;;;;;;6085809;23;20437;-81
2023/04/16 10:16:18;;;;;;;4.68;2.20;;;20.50;34.30;;;;;;6092435;23;20385;-81
2023/04/16 10:18:46;;;;;;;2.85;1.50;;;20.70;33.70;;;;;;6093143;23;20413;-81
2023/04/16 10:21:15;;;;;;;3.78;1.80;;;20.90;33.00;;;;;;6091809;23;20413;-81
2023/04/16 10:23:42;;;;;;;4.88;1.98;;;21.10;32.70;;;;;;6092840;23;20380;-81
2023/04/16 10:26:09;;;;;;;3.00;1.42;;;21.30;32.70;;;;;;6092129;23;20385;-81
2023/04/16 10:28:36;;;;;;;3.00;1.50;;;21.40;32.00;;;;;;6092397;23;20382;-82
2023/04/16 10:31:06;;;;;;;4.43;2.13;;;21.50;31.80;;;;;;6092798;23;20381;-82
2023/04/16 10:33:40;;;;;;;5.00;2.40;;;21.70;32.00;;;;;;6067959;23;20394;-81
2023/04/16 10:36:09;;;;;;;4.15;2.13;;;21.70;32.20;;;;;;6092999;23;20456;-80
2023/04/16 10:38:43;;;;;;;3.07;1.60;;;21.70;32.70;;;;;;6091815;23;20393;-82
2023/04/16 10:41:10;;;;;;;2.97;1.53;;;21.80;31.30;;;;;;6091734;23;20444;-80
2023/04/16 10:43:43;;;;;;;3.50;1.55;;;21.70;31.10;;;;;;6119494;23;20383;-81
2023/04/16 10:46:30;;;;;;;1.83;1.02;;;21.80;31.80;;;;;;6145304;23;20718;-81
2023/04/16 10:49:01;;;;;;;2.25;0.90;;;21.90;31.90;;;;;;6103901;23;20703;-81
2023/04/16 10:51:34;;;;;;;2.60;1.27;;;22.10;32.30;;;;;;6089212;23;20385;-81
2023/04/16 10:54:20;;;;;;;1.77;1.10;;;22.20;30.30;;;;;;6091429;23;20413;-81
2023/04/16 10:56:48;;;;;;;2.30;0.98;;;22.40;31.10;;;;;;6091232;23;20693;-81
2023/04/16 10:59:20;;;;;;;1.50;0.70;;;22.50;29.40;;;;;;6094077;23;20385;-82
2023/04/16 11:01:53;;;;;;;2.30;0.77;;;22.60;28.60;;;;;;6090664;23;20405;-82
2023/04/16 11:04:20;;;;;;;1.85;0.65;;;22.70;27.30;;;;;;6093591;23;20429;-82
2023/04/16 11:07:05;;;;;;;1.95;0.65;;;22.70;28.30;;;;;;6091280;23;20716;-83
2023/04/16 11:10:01;;;;;;;1.33;0.70;;;22.60;27.90;;;;;;6092139;23;20688;-81
2023/04/16 11:12:41;;;;;;;1.55;0.70;;;22.70;27.90;;;;;;6092047;23;20433;-81
2023/04/16 11:15:13;;;;;;;1.33;0.60;;;22.80;27.70;;;;;;6090515;23;20397;-81
2023/04/16 11:17:40;;;;;;;1.10;0.50;;;22.90;27.90;;;;;;6091899;23;20409;-81
2023/04/16 11:20:28;;;;;;;1.40;0.73;;;22.90;27.70;;;;;;6089767;23;20405;-81
2023/04/16 11:22:56;;;;;;;2.60;0.65;;;22.90;26.50;;;;;;6092407;23;20401;-81
2023/04/16 11:25:29;;;;;;;2.47;1.60;;;22.70;27.30;;;;;;6091411;23;20401;-81
2023/04/16 11:28:00;;;;;;;2.00;1.20;;;22.60;28.10;;;;;;6093825;23;20377;-81
2023/04/16 11:30:37;;;;;;;1.70;0.70;;;22.60;29.20;;;;;;6091462;23;20465;-81
2023/04/16 11:33:08;;;;;;;1.55;0.75;;;22.80;28.60;;;;;;6090966;23;20461;-81
2023/04/16 11:35:34;;;;;;;2.95;1.35;;;22.90;27.90;;;;;;6092227;23;20895;-81
2023/04/16 11:38:01;;;;;;;2.03;0.98;;;23.00;27.80;;;;;;6091596;23;20384;-81
2023/04/16 11:40:30;;;;;;;1.50;0.77;;;23.10;28.30;;;;;;6089910;23;20442;-81
2023/04/16 11:43:01;;;;;;;1.83;0.60;;;23.30;27.70;;;;;;6092267;23;20704;-81
2023/04/16 11:45:28;;;;;;;1.65;0.70;;;23.40;27.30;;;;;;6092739;23;20450;-81
2023/04/16 11:47:56;;;;;;;2.25;1.00;;;23.50;27.50;;;;;;6091996;23;20416;-81
2023/04/16 11:50:26;;;;;;;1.67;0.70;;;23.60;27.60;;;;;;6090517;23;20383;-80
2023/04/16 11:52:55;;;;;;;3.13;0.70;;;23.70;27.80;;;;;;6092217;23;20377;-81
2023/04/16 11:55:23;;;;;;;2.43;0.90;;;23.70;27.10;;;;;;6090984;23;20401;-81
2023/04/16 11:57:50;;;;;;;1.65;0.70;;;23.50;27.40;;;;;;6093396;23;20377;-81
2023/04/16 12:00:19;;;;;;;2.35;1.02;;;23.50;27.60;;;;;;6091327;23;20427;-80
2023/04/16 12:02:52;;;;;;;1.58;0.80;;;23.50;28.10;;;;;;6092120;23;20445;-81
2023/04/16 12:05:30;;;;;;;1.60;0.70;;;23.50;28.60;;;;;;6091290;23;20373;-81
2023/04/16 12:07:58;;;;;;;1.52;0.75;;;23.50;28.40;;;;;;6091042;23;20453;-80
2023/04/16 12:10:26;;;;;;;2.10;0.60;;;23.60;27.80;;;;;;6091038;23;20388;-81
2023/04/16 12:12:53;;;;;;;2.20;1.00;;;23.70;27.80;;;;;;6091611;23;20460;-81
2023/04/16 12:15:20;;;;;;;5.03;4.03;;;23.60;27.40;;;;;;6090751;23;20448;-80
2023/04/16 12:17:47;;;;;;;2.40;1.43;;;23.50;27.50;;;;;;6091419;23;20380;-81
2023/04/16 12:20:15;;;;;;;1.45;0.68;;;23.30;27.50;;;;;;6090971;23;20444;-81
2023/04/16 12:22:47;;;;;;;1.20;0.75;;;23.10;27.80;;;;;;6093200;23;20441;-81
2023/04/16 12:25:16;;;;;;;10.98;6.10;;;22.90;28.20;;;;;;6091237;23;20389;-81
2023/04/16 12:27:45;;;;;;;3.13;1.70;;;22.80;28.70;;;;;;6093261;23;20433;-81
2023/04/16 12:30:14;;;;;;;2.05;0.80;;;22.80;29.00;;;;;;6090795;23;20433;-84
2023/04/16 12:32:42;;;;;;;2.03;1.02;;;22.90;29.30;;;;;;6092674;23;20429;-79
2023/04/16 12:35:12;;;;;;;3.22;1.42;;;23.10;29.00;;;;;;6091663;23;20377;-79
2023/04/16 12:37:40;;;;;;;2.00;1.00;;;23.30;29.00;;;;;;6091388;23;20740;-80
2023/04/16 12:40:07;;;;;;;4.35;2.30;;;23.40;29.20;;;;;;6091433;23;20449;-80
2023/04/16 12:42:35;;;;;;;2.17;1.00;;;23.30;28.80;;;;;;6091248;23;20374;-80
2023/04/16 12:45:04;;;;;;;3.75;2.08;;;23.50;29.30;;;;;;6091143;23;20384;-80
2023/04/16 12:47:31;;;;;;;1.58;0.90;;;23.70;28.40;;;;;;6090445;23;20437;-80
2023/04/16 12:49:58;;;;;;;1.67;0.88;;;23.90;28.50;;;;;;6090627;23;20385;-80
2023/04/16 12:52:25;;;;;;;2.33;1.00;;;24.10;28.10;;;;;;6088889;23;20694;-80
2023/04/16 12:54:52;;;;;;;1.93;0.70;;;24.30;27.40;;;;;;6091442;23;20863;-80
2023/04/16 12:57:27;;;;;;;3.05;0.95;;;24.60;27.80;;;;;;6089723;23;20458;-82
2023/04/16 12:59:55;;;;;;;1.52;0.82;;;24.70;26.10;;;;;;6090627;23;20370;-79
2023/04/16 13:02:23;;;;;;;1.80;0.83;;;24.60;26.30;;;;;;6090158;23;20401;-79
2023/04/16 13:04:51;;;;;;;1.88;1.00;;;24.40;26.40;;;;;;6090887;23;20903;-80
2023/04/16 13:07:19;;;;;;;2.33;1.33;;;24.30;26.90;;;;;;6091157;23;20460;-81
2023/04/16 13:09:46;;;;;;;1.65;0.73;;;24.30;27.40;;;;;;6091494;23;20428;-80
2023/04/16 13:12:13;;;;;;;1.90;0.80;;;24.40;27.40;;;;;;6088721;23;20719;-81
2023/04/16 13:14:40;;;;;;;1.50;0.80;;;24.70;27.30;;;;;;6089655;23;20381;-82
2023/04/16 13:17:10;;;;;;;1.73;1.10;;;25.00;26.90;;;;;;6091234;23;20711;-80
2023/04/16 13:19:37;;;;;;;2.65;0.60;;;25.10;25.30;;;;;;6093028;23;20452;-81
2023/04/16 13:22:04;;;;;;;1.50;0.70;;;24.90;25.70;;;;;;6092282;23;20420;-80
2023/04/16 13:24:31;;;;;;;1.20;0.60;;;24.90;26.20;;;;;;6089504;23;20389;-80
2023/04/16 13:26:58;;;;;;;1.42;0.70;;;24.80;26.00;;;;;;6091112;23;20452;-80
2023/04/16 13:29:25;;;;;;;1.38;0.60;;;24.70;25.80;;;;;;6090117;23;20377;-80
2023/04/16 13:31:52;;;;;;;1.77;0.65;;;24.60;26.30;;;;;;6091155;23;20408;-80
2023/04/16 13:34:20;;;;;;;2.65;1.63;;;24.80;27.10;;;;;;6091007;23;20473;-81
2023/04/16 13:36:46;;;;;;;2.92;1.65;;;25.10;27.00;;;;;;6091016;23;20707;-81
2023/04/16 13:39:14;;;;;;;4.17;2.00;;;25.40;25.80;;;;;;6092212;23;20449;-81
2023/04/16 13:41:41;;;;;;;1.88;0.70;;;25.30;25.20;;;;;;6091115;23;20417;-81
2023/04/16 13:44:08;;;;;;;2.92;1.20;;;25.10;25.70;;;;;;6092166;23;20419;-80
2023/04/16 13:46:35;;;;;;;1.90;0.80;;;25.00;25.30;;;;;;6090765;23;20468;-81
2023/04/16 13:49:02;;;;;;;1.40;0.70;;;24.90;25.50;;;;;;6091813;23;20381;-81
2023/04/16 13:51:28;;;;;;;2.25;1.05;;;24.70;25.70;;;;;;6092114;23;20417;-80
2023/04/16 13:53:55;;;;;;;1.20;0.60;;;24.40;25.80;;;;;;6092072;23;20380;-80
2023/04/16 13:56:22;;;;;;;0.73;0.40;;;24.30;26.50;;;;;;6091219;23;20760;-80
2023/04/16 13:58:49;;;;;;;1.13;0.60;;;24.30;27.00;;;;;;6091558;23;20437;-80
2023/04/16 14:01:16;;;;;;;0.87;0.50;;;24.50;27.20;;;;;;6091624;23;20413;-80
2023/04/16 14:03:43;;;;;;;1.10;0.55;;;24.60;26.10;;;;;;6090995;23;20368;-80
2023/04/16 14:06:10;;;;;;;1.33;0.50;;;24.50;26.30;;;;;;6092432;23;20385;-81
2023/04/16 14:08:37;;;;;;;0.95;0.55;;;24.50;26.30;;;;;;6091945;23;20373;-80
2023/04/16 14:11:07;;;;;;;0.90;0.40;;;24.50;26.00;;;;;;6092193;23;20461;-80
2023/04/16 14:13:35;;;;;;;1.40;0.60;;;24.60;25.90;;;;;;6091406;23;20819;-80
2023/04/16 14:16:02;;;;;;;1.45;0.70;;;24.60;26.20;;;;;;6091571;23;20401;-81
2023/04/16 14:18:29;;;;;;;1.67;0.80;;;24.70;26.10;;;;;;6089883;23;20386;-80
2023/04/16 14:20:57;;;;;;;1.10;0.43;;;24.70;25.70;;;;;;6091688;23;20875;-80
2023/04/16 14:23:24;;;;;;;1.48;0.77;;;24.90;26.30;;;;;;6089821;23;20467;-81
2023/04/16 14:25:51;;;;;;;1.70;0.80;;;24.90;25.20;;;;;;6090075;23;20441;-81
2023/04/16 14:28:19;;;;;;;1.48;0.60;;;24.80;24.90;;;;;;6091280;23;20707;-80
2023/04/16 14:30:45;;;;;;;0.80;0.47;;;24.70;25.90;;;;;;6090931;23;20417;-81
2023/04/16 14:33:12;;;;;;;2.20;0.60;;;24.80;26.10;;;;;;6092129;23;20381;-80
2023/04/16 14:35:40;;;;;;;1.73;0.75;;;24.90;26.10;;;;;;6090884;23;20393;-80
2023/04/16 14:38:07;;;;;;;1.05;0.50;;;25.00;25.80;;;;;;6091215;23;20567;-80
2023/04/16 14:40:34;;;;;;;1.15;0.60;;;25.10;25.50;;;;;;6091303;23;20401;-80
2023/04/16 14:43:01;;;;;;;2.08;0.68;;;25.00;25.40;;;;;;6091808;23;20405;-80
2023/04/16 14:45:29;;;;;;;0.80;0.40;;;25.00;25.60;;;;;;6092437;23;20377;-80
2023/04/16 14:47:56;;;;;;;2.20;0.80;;;25.00;25.90;;;;;;6091517;23;20437;-81
2023/04/16 14:50:23;;;;;;;1.25;0.57;;;25.10;25.30;;;;;;6090190;23;20385;-80
2023/04/16 14:52:52;;;;;;;1.57;0.70;;;25.20;25.30;;;;;;6087744;23;20449;-80
2023/04/16 14:55:20;;;;;;;3.45;0.73;;;25.20;25.50;;;;;;6089932;23;20569;-80
2023/04/16 14:57:47;;;;;;;6.38;0.82;;;25.30;25.10;;;;;;6091373;23;20380;-80
2023/04/16 15:00:16;;;;;;;1.13;0.60;;;25.40;24.90;;;;;;6092994;23;20409;-80
2023/04/16 15:02:43;;;;;;;1.10;0.60;;;25.50;25.10;;;;;;6092679;23;20410;-82
2023/04/16 15:05:10;;;;;;;1.27;0.60;;;25.60;25.30;;;;;;6089718;23;20760;-81
2023/04/16 15:07:37;;;;;;;1.97;0.40;;;25.70;24.70;;;;;;6091056;23;20388;-81
2023/04/16 15:10:06;;;;;;;3.47;0.70;;;25.90;24.90;;;;;;6091935;23;20685;-81
2023/04/16 15:12:33;;;;;;;1.75;0.57;;;26.00;25.20;;;;;;6091029;23;20855;-82
2023/04/16 15:14:59;;;;;;;1.63;0.60;;;26.00;24.80;;;;;;6092067;23;20468;-79
2023/04/16 15:17:26;;;;;;;2.07;0.70;;;25.90;25.20;;;;;;6090660;23;20756;-81
2023/04/16 15:19:53;;;;;;;1.20;0.50;;;25.80;24.70;;;;;;6091027;23;20385;-82
2023/04/16 15:22:20;;;;;;;2.50;0.70;;;25.70;24.90;;;;;;6092867;23;20401;-82
2023/04/16 15:24:48;;;;;;;1.30;0.70;;;25.70;24.80;;;;;;6090745;23;20468;-83
2023/04/16 15:27:16;;;;;;;1.03;0.40;;;25.60;24.90;;;;;;6092400;23;20697;-82
2023/04/16 15:29:45;;;;;;;1.13;0.60;;;25.80;24.80;;;;;;6091532;23;20404;-84
2023/04/16 15:32:12;;;;;;;1.10;0.50;;;25.90;24.70;;;;;;6091516;23;20381;-82
2023/04/16 15:34:40;;;;;;;2.00;0.60;;;26.10;24.80;;;;;;6090894;23;20385;-82
2023/04/16 15:37:08;;;;;;;1.27;0.50;;;26.30;24.90;;;;;;6091607;23;20476;-81
2023/04/16 15:39:35;;;;;;;2.17;0.65;;;26.60;24.30;;;;;;6091004;23;20405;-81
2023/04/16 15:42:05;;;;;;;1.10;0.60;;;26.60;24.30;;;;;;6091438;23;20381;-81
2023/04/16 15:44:33;;;;;;;0.85;0.50;;;26.60;24.40;;;;;;6090927;23;20923;-81
2023/04/16 15:47:00;;;;;;;1.90;0.50;;;26.60;24.70;;;;;;6091309;23;20386;-81
2023/04/16 15:49:27;;;;;;;1.63;0.50;;;26.50;24.90;;;;;;6091159;23;20409;-81
2023/04/16 15:51:54;;;;;;;0.85;0.45;;;26.40;24.60;;;;;;6090057;23;20510;-81
2023/04/16 15:54:22;;;;;;;1.08;0.40;;;26.30;24.20;;;;;;6091646;23;20397;-81
2023/04/16 15:56:50;;;;;;;0.45;0.30;;;26.20;24.50;;;;;;6092035;23;20385;-83
2023/04/16 15:59:16;;;;;;;2.33;0.70;;;26.00;24.90;;;;;;6093060;23;20451;-80
2023/04/16 16:01:43;;;;;;;0.98;0.50;;;25.70;24.60;;;;;;6091420;23;20419;-80
2023/04/16 16:04:10;;;;;;;3.70;3.22;;;25.40;25.20;;;;;;6094457;23;20389;-82
2023/04/16 16:06:37;;;;;;;70.03;55.10;;;25.20;25.50;;;;;;6092517;23;20373;-79
2023/04/16 16:09:05;;;;;;;36.70;31.17;;;24.90;25.50;;;;;;6092683;23;20380;-85
2023/04/16 16:11:37;;;;;;;249.00;213.80;;;24.60;26.00;;;;;;6091258;23;20408;-83
2023/04/16 16:14:03;;;;;;;26.60;22.63;;;24.40;26.40;;;;;;6093747;23;20369;-79
2023/04/16 16:16:31;;;;;;;33.78;27.20;;;24.10;26.40;;;;;;6092062;23;20381;-79
2023/04/16 16:18:58;;;;;;;64.68;58.92;;;23.70;26.90;;;;;;6123587;23;20379;-78
2023/04/16 16:21:27;;;;;;;8.02;6.93;;;23.40;27.10;;;;;;6123998;23;20379;-79
2023/04/16 16:23:54;;;;;;;6.05;2.67;;;23.20;27.50;;;;;;6144590;23;20727;-78
2023/04/16 16:26:21;;;;;;;6.85;4.65;;;23.00;27.90;;;;;;6147567;23;20371;-77
2023/04/16 16:28:48;;;;;;;4.07;2.27;;;22.90;28.70;;;;;;6146006;23;20395;-78
2023/04/16 16:31:15;;;;;;;2.20;1.48;;;22.80;28.90;;;;;;6147157;23;20451;-79
2023/04/16 16:33:42;;;;;;;6.07;3.75;;;22.70;28.80;;;;;;6146062;23;20387;-78
2023/04/16 16:36:10;;;;;;;3.08;0.70;;;22.50;28.80;;;;;;6147880;23;20710;-79
2023/04/16 16:38:38;;;;;;;1.42;1.05;;;22.40;29.00;;;;;;6144814;23;20384;-79